81TA weather

Masterson Heliport
Mico, Texas, United States

Public forecast

Using degrees Fahrenheit for public forecast. Weather courtesy of forecast.io.

Closest aviation weather report (METAR) to Masterson Heliport

Closest report is Castroville Municipal Airport, 13.5 nm (25.1 km) SSE. Retrieved 2019/11/13 18:35 UTC (19 minutes ago):

KCVB 131835Z AUTO 21003KT 10SM DZ BKN040 OVC046 04/M04 A3026 RMK AO2 P0001 T00351040

Closest aviation forecast (TAF) to Masterson Heliport

Closest forecast is Lackland Air Force Base, 20.9 nm (38.8 km) ESE. Retrieved 2019/11/13 18:18 UTC (36 minutes ago):

TAF KSKF 131800Z 1318/1424 19006KT 9999 -RA BKN030 OVC090 620302 QNH3012INS BECMG 1404/1405 VRB06KT 9999 NSW BKN025 QNH3011INS BECMG 1411/1412 01007KT 9000 -SHRA BKN015 QNH3013INS BECMG 1418/1419 01010KT 9999 NSW BKN030 QNH3025INS BECMG 1419/1420 02010G15KT 9999 OVC013 QNH3023INS TX07/1415Z TN03/1412Z